sensor_id;sensor_type;location;lat;lon;timestamp;P1;durP1;ratioP1;P2;durP2;ratioP2
10863;SDS011;5485;37.558;126.950;2023-06-24T00:00:56;9.60;;;8.65;;
10863;SDS011;5485;37.558;126.950;2023-06-24T00:03:32;12.10;;;9.60;;
10863;SDS011;5485;37.558;126.950;2023-06-24T00:06:02;13.13;;;11.82;;
10863;SDS011;5485;37.558;126.950;2023-06-24T00:08:29;11.82;;;10.65;;
10863;SDS011;5485;37.558;126.950;2023-06-24T00:11:02;10.55;;;9.38;;
10863;SDS011;5485;37.558;126.950;2023-06-24T00:13:29;12.10;;;10.98;;
10863;SDS011;5485;37.558;126.950;2023-06-24T00:15:56;12.65;;;11.40;;
10863;SDS011;5485;37.558;126.950;2023-06-24T00:18:23;13.77;;;11.70;;
10863;SDS011;5485;37.558;126.950;2023-06-24T00:20:55;15.48;;;13.65;;
10863;SDS011;5485;37.558;126.950;2023-06-24T00:23:22;13.40;;;12.23;;
10863;SDS011;5485;37.558;126.950;2023-06-24T00:25:52;11.68;;;10.48;;
10863;SDS011;5485;37.558;126.950;2023-06-24T00:28:20;12.63;;;11.32;;
10863;SDS011;5485;37.558;126.950;2023-06-24T00:30:48;12.15;;;11.05;;
10863;SDS011;5485;37.558;126.950;2023-06-24T00:33:18;13.40;;;12.10;;
10863;SDS011;5485;37.558;126.950;2023-06-24T00:35:45;16.50;;;14.77;;
10863;SDS011;5485;37.558;126.950;2023-06-24T00:38:12;15.68;;;14.02;;
10863;SDS011;5485;37.558;126.950;2023-06-24T00:40:39;16.42;;;14.93;;
10863;SDS011;5485;37.558;126.950;2023-06-24T00:43:11;14.13;;;12.82;;
10863;SDS011;5485;37.558;126.950;2023-06-24T00:45:38;12.75;;;11.57;;
10863;SDS011;5485;37.558;126.950;2023-06-24T00:48:06;14.48;;;13.07;;
10863;SDS011;5485;37.558;126.950;2023-06-24T00:50:32;17.10;;;15.50;;
10863;SDS011;5485;37.558;126.950;2023-06-24T00:53:00;16.20;;;14.65;;
10863;SDS011;5485;37.558;126.950;2023-06-24T00:55:30;18.77;;;15.82;;
10863;SDS011;5485;37.558;126.950;2023-06-24T00:57:57;17.67;;;15.95;;
10863;SDS011;5485;37.558;126.950;2023-06-24T01:00:30;16.25;;;14.88;;
10863;SDS011;5485;37.558;126.950;2023-06-24T01:03:02;15.05;;;13.32;;
10863;SDS011;5485;37.558;126.950;2023-06-24T01:05:30;20.13;;;15.00;;
10863;SDS011;5485;37.558;126.950;2023-06-24T01:08:00;16.75;;;15.13;;
10863;SDS011;5485;37.558;126.950;2023-06-24T01:10:28;17.98;;;15.30;;
10863;SDS011;5485;37.558;126.950;2023-06-24T01:12:55;17.42;;;15.88;;
10863;SDS011;5485;37.558;126.950;2023-06-24T01:15:22;20.40;;;16.67;;
10863;SDS011;5485;37.558;126.950;2023-06-24T01:20:37;17.77;;;16.00;;
10863;SDS011;5485;37.558;126.950;2023-06-24T01:36:37;14.55;;;13.18;;
10863;SDS011;5485;37.558;126.950;2023-06-24T01:39:08;15.85;;;14.27;;
10863;SDS011;5485;37.558;126.950;2023-06-24T01:41:41;16.25;;;13.68;;
10863;SDS011;5485;37.558;126.950;2023-06-24T01:44:12;20.02;;;18.20;;
10863;SDS011;5485;37.558;126.950;2023-06-24T01:46:44;16.77;;;15.13;;
10863;SDS011;5485;37.558;126.950;2023-06-24T01:49:14;15.90;;;14.23;;
10863;SDS011;5485;37.558;126.950;2023-06-24T01:51:45;20.00;;;16.83;;
10863;SDS011;5485;37.558;126.950;2023-06-24T01:54:14;16.17;;;14.77;;
10863;SDS011;5485;37.558;126.950;2023-06-24T01:56:44;18.95;;;16.98;;
10863;SDS011;5485;37.558;126.950;2023-06-24T01:59:13;22.80;;;19.35;;
10863;SDS011;5485;37.558;126.950;2023-06-24T02:01:43;19.88;;;17.88;;
10863;SDS011;5485;37.558;126.950;2023-06-24T02:04:17;22.90;;;18.55;;
10863;SDS011;5485;37.558;126.950;2023-06-24T02:06:52;17.13;;;15.55;;
10863;SDS011;5485;37.558;126.950;2023-06-24T02:09:26;22.05;;;19.83;;
10863;SDS011;5485;37.558;126.950;2023-06-24T02:11:54;23.55;;;19.95;;
10863;SDS011;5485;37.558;126.950;2023-06-24T02:14:24;20.98;;;19.05;;
10863;SDS011;5485;37.558;126.950;2023-06-24T02:16:53;21.65;;;19.42;;
10863;SDS011;5485;37.558;126.950;2023-06-24T02:19:27;22.95;;;19.25;;
10863;SDS011;5485;37.558;126.950;2023-06-24T02:21:58;23.55;;;21.25;;
10863;SDS011;5485;37.558;126.950;2023-06-24T02:24:27;22.83;;;20.45;;
10863;SDS011;5485;37.558;126.950;2023-06-24T02:26:58;22.70;;;20.45;;
10863;SDS011;5485;37.558;126.950;2023-06-24T02:29:27;22.65;;;20.58;;
10863;SDS011;5485;37.558;126.950;2023-06-24T02:31:56;23.30;;;20.95;;
10863;SDS011;5485;37.558;126.950;2023-06-24T02:34:23;24.83;;;22.42;;
10863;SDS011;5485;37.558;126.950;2023-06-24T02:36:50;22.30;;;19.42;;
10863;SDS011;5485;37.558;126.950;2023-06-24T02:39:17;23.10;;;20.90;;
10863;SDS011;5485;37.558;126.950;2023-06-24T02:41:45;20.88;;;18.80;;
10863;SDS011;5485;37.558;126.950;2023-06-24T02:44:13;23.08;;;20.80;;
10863;SDS011;5485;37.558;126.950;2023-06-24T02:46:40;25.20;;;22.95;;
10863;SDS011;5485;37.558;126.950;2023-06-24T02:49:09;26.35;;;24.05;;
10863;SDS011;5485;37.558;126.950;2023-06-24T02:51:39;22.98;;;20.88;;
10863;SDS011;5485;37.558;126.950;2023-06-24T02:54:07;22.02;;;20.23;;
10863;SDS011;5485;37.558;126.950;2023-06-24T02:56:35;25.30;;;21.15;;
10863;SDS011;5485;37.558;126.950;2023-06-24T02:59:07;21.83;;;19.92;;
10863;SDS011;5485;37.558;126.950;2023-06-24T03:01:36;19.88;;;17.92;;
10863;SDS011;5485;37.558;126.950;2023-06-24T03:04:10;19.52;;;17.88;;
10863;SDS011;5485;37.558;126.950;2023-06-24T03:06:38;21.95;;;19.85;;
10863;SDS011;5485;37.558;126.950;2023-06-24T03:09:05;22.08;;;19.95;;
10863;SDS011;5485;37.558;126.950;2023-06-24T03:11:39;20.60;;;18.75;;
10863;SDS011;5485;37.558;126.950;2023-06-24T03:14:07;23.00;;;20.98;;
10863;SDS011;5485;37.558;126.950;2023-06-24T03:16:35;23.70;;;21.50;;
10863;SDS011;5485;37.558;126.950;2023-06-24T03:19:05;24.15;;;20.95;;
10863;SDS011;5485;37.558;126.950;2023-06-24T03:21:32;24.05;;;21.67;;
10863;SDS011;5485;37.558;126.950;2023-06-24T03:23:59;23.70;;;21.50;;
10863;SDS011;5485;37.558;126.950;2023-06-24T03:26:31;24.52;;;22.23;;
10863;SDS011;5485;37.558;126.950;2023-06-24T03:29:01;25.00;;;22.65;;
10863;SDS011;5485;37.558;126.950;2023-06-24T03:31:29;22.08;;;19.83;;
10863;SDS011;5485;37.558;126.950;2023-06-24T03:33:56;26.67;;;24.08;;
10863;SDS011;5485;37.558;126.950;2023-06-24T03:36:23;24.27;;;22.08;;
10863;SDS011;5485;37.558;126.950;2023-06-24T03:38:52;24.27;;;22.17;;
10863;SDS011;5485;37.558;126.950;2023-06-24T03:41:19;24.55;;;22.00;;
10863;SDS011;5485;37.558;126.950;2023-06-24T03:43:50;26.85;;;24.30;;
10863;SDS011;5485;37.558;126.950;2023-06-24T03:46:18;32.38;;;29.08;;
10863;SDS011;5485;37.558;126.950;2023-06-24T03:48:45;29.73;;;26.85;;
10863;SDS011;5485;37.558;126.950;2023-06-24T03:51:12;32.15;;;28.85;;
10863;SDS011;5485;37.558;126.950;2023-06-24T03:53:41;31.38;;;28.25;;
10863;SDS011;5485;37.558;126.950;2023-06-24T03:56:09;34.80;;;31.35;;
10863;SDS011;5485;37.558;126.950;2023-06-24T03:58:36;32.72;;;29.20;;
10863;SDS011;5485;37.558;126.950;2023-06-24T04:01:03;32.45;;;28.55;;
10863;SDS011;5485;37.558;126.950;2023-06-24T04:03:34;32.05;;;28.95;;
10863;SDS011;5485;37.558;126.950;2023-06-24T04:06:01;29.83;;;26.67;;
10863;SDS011;5485;37.558;126.950;2023-06-24T04:08:28;34.30;;;30.88;;
10863;SDS011;5485;37.558;126.950;2023-06-24T04:10:56;31.02;;;28.08;;
10863;SDS011;5485;37.558;126.950;2023-06-24T04:13:25;29.92;;;27.02;;
10863;SDS011;5485;37.558;126.950;2023-06-24T04:15:52;28.60;;;25.75;;
10863;SDS011;5485;37.558;126.950;2023-06-24T04:18:19;32.65;;;29.30;;
10863;SDS011;5485;37.558;126.950;2023-06-24T04:20:46;31.00;;;28.00;;
10863;SDS011;5485;37.558;126.950;2023-06-24T04:23:13;29.55;;;26.67;;
10863;SDS011;5485;37.558;126.950;2023-06-24T04:25:40;26.10;;;22.33;;
10863;SDS011;5485;37.558;126.950;2023-06-24T04:28:07;26.15;;;23.50;;
10863;SDS011;5485;37.558;126.950;2023-06-24T04:30:34;25.88;;;23.38;;
10863;SDS011;5485;37.558;126.950;2023-06-24T04:33:04;25.42;;;23.00;;
10863;SDS011;5485;37.558;126.950;2023-06-24T04:35:31;30.70;;;27.50;;
10863;SDS011;5485;37.558;126.950;2023-06-24T04:37:58;32.45;;;29.15;;
10863;SDS011;5485;37.558;126.950;2023-06-24T04:40:25;33.40;;;29.90;;
10863;SDS011;5485;37.558;126.950;2023-06-24T04:42:52;34.75;;;31.25;;
10863;SDS011;5485;37.558;126.950;2023-06-24T04:45:18;30.85;;;27.92;;
10863;SDS011;5485;37.558;126.950;2023-06-24T04:47:46;28.33;;;25.77;;
10863;SDS011;5485;37.558;126.950;2023-06-24T04:50:13;30.20;;;27.15;;
10863;SDS011;5485;37.558;126.950;2023-06-24T04:52:40;29.17;;;26.08;;
10863;SDS011;5485;37.558;126.950;2023-06-24T04:55:07;30.38;;;27.23;;
10863;SDS011;5485;37.558;126.950;2023-06-24T04:57:34;30.55;;;26.90;;
10863;SDS011;5485;37.558;126.950;2023-06-24T05:00:03;32.50;;;29.20;;
10863;SDS011;5485;37.558;126.950;2023-06-24T05:02:32;119.82;;;54.17;;
10863;SDS011;5485;37.558;126.950;2023-06-24T05:04:59;34.67;;;31.10;;
10863;SDS011;5485;37.558;126.950;2023-06-24T05:07:25;42.67;;;33.03;;
10863;SDS011;5485;37.558;126.950;2023-06-24T05:09:52;35.65;;;31.95;;
10863;SDS011;5485;37.558;126.950;2023-06-24T05:12:22;31.75;;;28.65;;
10863;SDS011;5485;37.558;126.950;2023-06-24T05:14:49;31.05;;;28.23;;
10863;SDS011;5485;37.558;126.950;2023-06-24T05:17:20;31.23;;;28.15;;
10863;SDS011;5485;37.558;126.950;2023-06-24T05:19:47;39.55;;;31.33;;
10863;SDS011;5485;37.558;126.950;2023-06-24T05:22:14;29.08;;;26.23;;
10863;SDS011;5485;37.558;126.950;2023-06-24T05:24:41;28.70;;;26.08;;
10863;SDS011;5485;37.558;126.950;2023-06-24T05:27:08;28.23;;;25.65;;
10863;SDS011;5485;37.558;126.950;2023-06-24T05:29:35;29.80;;;26.80;;
10863;SDS011;5485;37.558;126.950;2023-06-24T05:32:04;29.35;;;26.33;;
10863;SDS011;5485;37.558;126.950;2023-06-24T05:34:32;30.52;;;27.42;;
10863;SDS011;5485;37.558;126.950;2023-06-24T05:36:59;31.02;;;28.02;;
10863;SDS011;5485;37.558;126.950;2023-06-24T05:39:27;32.03;;;28.52;;
10863;SDS011;5485;37.558;126.950;2023-06-24T05:41:53;32.20;;;29.00;;
10863;SDS011;5485;37.558;126.950;2023-06-24T05:44:20;34.05;;;30.75;;
10863;SDS011;5485;37.558;126.950;2023-06-24T05:46:48;36.78;;;33.15;;
10863;SDS011;5485;37.558;126.950;2023-06-24T05:49:15;39.83;;;35.78;;
10863;SDS011;5485;37.558;126.950;2023-06-24T05:51:42;43.03;;;38.75;;
10863;SDS011;5485;37.558;126.950;2023-06-24T05:54:09;40.67;;;36.75;;
10863;SDS011;5485;37.558;126.950;2023-06-24T05:56:36;42.63;;;38.28;;
10863;SDS011;5485;37.558;126.950;2023-06-24T05:59:04;41.50;;;37.50;;
10863;SDS011;5485;37.558;126.950;2023-06-24T06:01:31;40.28;;;36.22;;
10863;SDS011;5485;37.558;126.950;2023-06-24T06:03:58;41.30;;;37.22;;
10863;SDS011;5485;37.558;126.950;2023-06-24T06:06:24;38.45;;;34.33;;
10863;SDS011;5485;37.558;126.950;2023-06-24T06:08:51;37.13;;;33.35;;
10863;SDS011;5485;37.558;126.950;2023-06-24T06:11:21;37.03;;;33.40;;
10863;SDS011;5485;37.558;126.950;2023-06-24T06:13:48;37.65;;;33.88;;
10863;SDS011;5485;37.558;126.950;2023-06-24T06:16:18;35.03;;;31.48;;
10863;SDS011;5485;37.558;126.950;2023-06-24T06:18:45;34.05;;;30.95;;
10863;SDS011;5485;37.558;126.950;2023-06-24T06:21:12;35.40;;;31.90;;
10863;SDS011;5485;37.558;126.950;2023-06-24T06:23:39;36.85;;;33.13;;
10863;SDS011;5485;37.558;126.950;2023-06-24T06:26:06;37.90;;;34.05;;
10863;SDS011;5485;37.558;126.950;2023-06-24T06:28:33;36.58;;;32.95;;
10863;SDS011;5485;37.558;126.950;2023-06-24T06:30:59;34.83;;;31.42;;
10863;SDS011;5485;37.558;126.950;2023-06-24T06:33:26;39.13;;;35.13;;
10863;SDS011;5485;37.558;126.950;2023-06-24T06:35:53;41.33;;;36.15;;
10863;SDS011;5485;37.558;126.950;2023-06-24T06:38:20;37.67;;;33.80;;
10863;SDS011;5485;37.558;126.950;2023-06-24T06:40:47;37.25;;;33.67;;
10863;SDS011;5485;37.558;126.950;2023-06-24T06:43:14;37.47;;;33.95;;
10863;SDS011;5485;37.558;126.950;2023-06-24T06:45:40;37.00;;;33.47;;
10863;SDS011;5485;37.558;126.950;2023-06-24T06:48:07;35.55;;;31.52;;
10863;SDS011;5485;37.558;126.950;2023-06-24T06:50:34;35.60;;;32.10;;
10863;SDS011;5485;37.558;126.950;2023-06-24T06:53:01;37.20;;;33.55;;
10863;SDS011;5485;37.558;126.950;2023-06-24T06:55:28;40.45;;;36.42;;
10863;SDS011;5485;37.558;126.950;2023-06-24T06:57:55;37.58;;;33.88;;
10863;SDS011;5485;37.558;126.950;2023-06-24T07:00:22;35.65;;;32.15;;
10863;SDS011;5485;37.558;126.950;2023-06-24T07:02:49;37.75;;;33.92;;
10863;SDS011;5485;37.558;126.950;2023-06-24T07:05:19;37.85;;;33.85;;
10863;SDS011;5485;37.558;126.950;2023-06-24T07:07:46;40.10;;;36.33;;
10863;SDS011;5485;37.558;126.950;2023-06-24T07:10:15;37.42;;;33.30;;
10863;SDS011;5485;37.558;126.950;2023-06-24T07:12:42;36.30;;;32.53;;
10863;SDS011;5485;37.558;126.950;2023-06-24T07:15:09;35.15;;;31.77;;
10863;SDS011;5485;37.558;126.950;2023-06-24T07:17:37;36.05;;;32.63;;
10863;SDS011;5485;37.558;126.950;2023-06-24T07:20:04;36.42;;;32.60;;
10863;SDS011;5485;37.558;126.950;2023-06-24T07:22:31;37.78;;;34.20;;
10863;SDS011;5485;37.558;126.950;2023-06-24T07:24:58;37.47;;;33.88;;
10863;SDS011;5485;37.558;126.950;2023-06-24T07:27:25;34.90;;;31.70;;
10863;SDS011;5485;37.558;126.950;2023-06-24T07:29:52;34.28;;;30.95;;
10863;SDS011;5485;37.558;126.950;2023-06-24T07:32:19;33.50;;;30.30;;
10863;SDS011;5485;37.558;126.950;2023-06-24T07:34:46;32.80;;;29.60;;
10863;SDS011;5485;37.558;126.950;2023-06-24T07:37:13;31.80;;;28.90;;
10863;SDS011;5485;37.558;126.950;2023-06-24T07:39:40;33.92;;;30.23;;
10863;SDS011;5485;37.558;126.950;2023-06-24T07:42:07;32.70;;;29.75;;
10863;SDS011;5485;37.558;126.950;2023-06-24T07:44:34;37.40;;;33.67;;
10863;SDS011;5485;37.558;126.950;2023-06-24T07:47:03;34.75;;;31.27;;
10863;SDS011;5485;37.558;126.950;2023-06-24T07:49:30;34.00;;;30.77;;
10863;SDS011;5485;37.558;126.950;2023-06-24T07:51:56;30.85;;;28.05;;
10863;SDS011;5485;37.558;126.950;2023-06-24T07:54:23;31.75;;;28.70;;
10863;SDS011;5485;37.558;126.950;2023-06-24T07:56:50;32.70;;;29.42;;
10863;SDS011;5485;37.558;126.950;2023-06-24T07:59:20;30.38;;;27.30;;
10863;SDS011;5485;37.558;126.950;2023-06-24T08:01:47;31.25;;;28.15;;
10863;SDS011;5485;37.558;126.950;2023-06-24T08:04:15;31.98;;;28.85;;
10863;SDS011;5485;37.558;126.950;2023-06-24T08:06:51;35.17;;;31.83;;
10863;SDS011;5485;37.558;126.950;2023-06-24T08:09:18;32.13;;;28.85;;
10863;SDS011;5485;37.558;126.950;2023-06-24T08:11:46;31.38;;;28.27;;
10863;SDS011;5485;37.558;126.950;2023-06-24T08:14:15;31.05;;;28.15;;
10863;SDS011;5485;37.558;126.950;2023-06-24T08:16:42;31.83;;;28.73;;
10863;SDS011;5485;37.558;126.950;2023-06-24T08:19:09;27.85;;;25.38;;
10863;SDS011;5485;37.558;126.950;2023-06-24T08:21:39;28.80;;;26.08;;
10863;SDS011;5485;37.558;126.950;2023-06-24T08:24:06;27.88;;;25.27;;
10863;SDS011;5485;37.558;126.950;2023-06-24T08:26:33;31.83;;;28.73;;
10863;SDS011;5485;37.558;126.950;2023-06-24T08:29:03;30.23;;;27.50;;
10863;SDS011;5485;37.558;126.950;2023-06-24T08:31:33;28.05;;;25.40;;
10863;SDS011;5485;37.558;126.950;2023-06-24T08:34:00;27.33;;;24.48;;
10863;SDS011;5485;37.558;126.950;2023-06-24T08:36:31;27.65;;;24.77;;
10863;SDS011;5485;37.558;126.950;2023-06-24T08:38:59;25.60;;;23.00;;
10863;SDS011;5485;37.558;126.950;2023-06-24T08:41:28;26.00;;;23.50;;
10863;SDS011;5485;37.558;126.950;2023-06-24T08:43:55;25.10;;;22.67;;
10863;SDS011;5485;37.558;126.950;2023-06-24T08:46:23;25.10;;;22.70;;
10863;SDS011;5485;37.558;126.950;2023-06-24T08:48:54;26.75;;;24.15;;
10863;SDS011;5485;37.558;126.950;2023-06-24T08:51:29;25.42;;;22.88;;
10863;SDS011;5485;37.558;126.950;2023-06-24T08:54:01;23.02;;;21.02;;
10863;SDS011;5485;37.558;126.950;2023-06-24T08:56:28;27.65;;;25.17;;
10863;SDS011;5485;37.558;126.950;2023-06-24T08:58:55;23.13;;;21.13;;
10863;SDS011;5485;37.558;126.950;2023-06-24T09:01:22;24.35;;;21.95;;
10863;SDS011;5485;37.558;126.950;2023-06-24T09:03:49;22.42;;;20.33;;
10863;SDS011;5485;37.558;126.950;2023-06-24T09:06:17;22.60;;;20.30;;
10863;SDS011;5485;37.558;126.950;2023-06-24T09:08:53;21.38;;;19.48;;
10863;SDS011;5485;37.558;126.950;2023-06-24T09:11:26;20.88;;;18.98;;
10863;SDS011;5485;37.558;126.950;2023-06-24T09:13:58;21.50;;;19.60;;
10863;SDS011;5485;37.558;126.950;2023-06-24T09:16:25;22.17;;;20.20;;
10863;SDS011;5485;37.558;126.950;2023-06-24T09:18:53;21.38;;;18.38;;
10863;SDS011;5485;37.558;126.950;2023-06-24T09:21:26;20.30;;;18.42;;
10863;SDS011;5485;37.558;126.950;2023-06-24T09:23:56;21.20;;;19.25;;
10863;SDS011;5485;37.558;126.950;2023-06-24T09:26:24;20.58;;;18.67;;
10863;SDS011;5485;37.558;126.950;2023-06-24T09:28:52;20.05;;;18.25;;
10863;SDS011;5485;37.558;126.950;2023-06-24T09:31:28;18.63;;;16.77;;
10863;SDS011;5485;37.558;126.950;2023-06-24T09:33:58;20.10;;;18.10;;
10863;SDS011;5485;37.558;126.950;2023-06-24T09:36:25;21.48;;;19.30;;
10863;SDS011;5485;37.558;126.950;2023-06-24T09:38:51;20.77;;;18.92;;
10863;SDS011;5485;37.558;126.950;2023-06-24T09:41:22;21.90;;;19.60;;
10863;SDS011;5485;37.558;126.950;2023-06-24T09:43:50;21.58;;;19.58;;
10863;SDS011;5485;37.558;126.950;2023-06-24T09:46:17;22.40;;;20.15;;
10863;SDS011;5485;37.558;126.950;2023-06-24T09:48:44;23.42;;;20.52;;
10863;SDS011;5485;37.558;126.950;2023-06-24T09:51:11;21.58;;;19.63;;
10863;SDS011;5485;37.558;126.950;2023-06-24T09:53:38;21.20;;;19.30;;
10863;SDS011;5485;37.558;126.950;2023-06-24T09:56:07;20.88;;;19.10;;
10863;SDS011;5485;37.558;126.950;2023-06-24T09:58:36;23.48;;;21.00;;
10863;SDS011;5485;37.558;126.950;2023-06-24T10:01:04;24.98;;;20.63;;
10863;SDS011;5485;37.558;126.950;2023-06-24T10:03:32;20.98;;;18.77;;
10863;SDS011;5485;37.558;126.950;2023-06-24T10:06:01;21.52;;;18.85;;
10863;SDS011;5485;37.558;126.950;2023-06-24T10:08:29;20.40;;;18.55;;
10863;SDS011;5485;37.558;126.950;2023-06-24T10:10:57;20.83;;;19.00;;
10863;SDS011;5485;37.558;126.950;2023-06-24T10:13:29;21.45;;;19.55;;
10863;SDS011;5485;37.558;126.950;2023-06-24T10:15:56;20.98;;;18.92;;
10863;SDS011;5485;37.558;126.950;2023-06-24T10:18:33;20.90;;;18.90;;
10863;SDS011;5485;37.558;126.950;2023-06-24T10:21:02;19.73;;;18.02;;
10863;SDS011;5485;37.558;126.950;2023-06-24T10:23:31;20.23;;;18.35;;
10863;SDS011;5485;37.558;126.950;2023-06-24T10:26:22;20.33;;;18.40;;
10863;SDS011;5485;37.558;126.950;2023-06-24T10:34:20;19.67;;;17.98;;
10863;SDS011;5485;37.558;126.950;2023-06-24T10:37:02;20.17;;;18.20;;
10863;SDS011;5485;37.558;126.950;2023-06-24T10:45:17;19.15;;;17.55;;
10863;SDS011;5485;37.558;126.950;2023-06-24T10:47:48;19.45;;;17.45;;
10863;SDS011;5485;37.558;126.950;2023-06-24T10:50:20;21.17;;;19.30;;
10863;SDS011;5485;37.558;126.950;2023-06-24T10:52:51;20.52;;;18.73;;
10863;SDS011;5485;37.558;126.950;2023-06-24T10:55:21;20.27;;;18.55;;
10863;SDS011;5485;37.558;126.950;2023-06-24T10:57:51;21.33;;;19.17;;
10863;SDS011;5485;37.558;126.950;2023-06-24T11:00:19;21.60;;;19.58;;
10863;SDS011;5485;37.558;126.950;2023-06-24T11:02:48;19.73;;;18.02;;
10863;SDS011;5485;37.558;126.950;2023-06-24T11:05:14;21.05;;;19.05;;
10863;SDS011;5485;37.558;126.950;2023-06-24T11:07:41;21.70;;;19.77;;
10863;SDS011;5485;37.558;126.950;2023-06-24T11:10:11;21.42;;;19.13;;
10863;SDS011;5485;37.558;126.950;2023-06-24T11:12:41;22.15;;;20.15;;
10863;SDS011;5485;37.558;126.950;2023-06-24T11:15:10;22.05;;;19.83;;
10863;SDS011;5485;37.558;126.950;2023-06-24T11:17:38;22.73;;;20.60;;
10863;SDS011;5485;37.558;126.950;2023-06-24T11:20:14;20.48;;;18.65;;
10863;SDS011;5485;37.558;126.950;2023-06-24T11:22:41;21.65;;;19.75;;
10863;SDS011;5485;37.558;126.950;2023-06-24T11:25:18;22.50;;;20.40;;
10863;SDS011;5485;37.558;126.950;2023-06-24T11:27:47;22.20;;;20.10;;
10863;SDS011;5485;37.558;126.950;2023-06-24T11:30:19;22.38;;;20.40;;
10863;SDS011;5485;37.558;126.950;2023-06-24T11:32:46;23.58;;;21.40;;
10863;SDS011;5485;37.558;126.950;2023-06-24T11:35:15;24.40;;;22.15;;
10863;SDS011;5485;37.558;126.950;2023-06-24T11:37:43;23.60;;;21.40;;
10863;SDS011;5485;37.558;126.950;2023-06-24T11:40:13;24.17;;;21.83;;
10863;SDS011;5485;37.558;126.950;2023-06-24T11:42:44;24.05;;;22.02;;
10863;SDS011;5485;37.558;126.950;2023-06-24T11:45:13;22.73;;;20.70;;
10863;SDS011;5485;37.558;126.950;2023-06-24T11:47:44;22.42;;;20.33;;
10863;SDS011;5485;37.558;126.950;2023-06-24T11:50:11;22.08;;;20.17;;
10863;SDS011;5485;37.558;126.950;2023-06-24T11:52:44;22.17;;;19.92;;
10863;SDS011;5485;37.558;126.950;2023-06-24T11:55:18;22.52;;;20.23;;
10863;SDS011;5485;37.558;126.950;2023-06-24T11:57:52;22.45;;;20.20;;
10863;SDS011;5485;37.558;126.950;2023-06-24T12:00:23;22.27;;;20.02;;
10863;SDS011;5485;37.558;126.950;2023-06-24T12:02:55;22.90;;;20.70;;
10863;SDS011;5485;37.558;126.950;2023-06-24T12:05:33;21.73;;;19.73;;
10863;SDS011;5485;37.558;126.950;2023-06-24T12:08:02;21.30;;;19.45;;
10863;SDS011;5485;37.558;126.950;2023-06-24T12:10:37;21.10;;;19.20;;
10863;SDS011;5485;37.558;126.950;2023-06-24T12:13:05;20.65;;;18.85;;
10863;SDS011;5485;37.558;126.950;2023-06-24T12:15:37;19.83;;;18.02;;
10863;SDS011;5485;37.558;126.950;2023-06-24T12:18:07;19.92;;;18.10;;
10863;SDS011;5485;37.558;126.950;2023-06-24T12:20:34;21.75;;;19.40;;
10863;SDS011;5485;37.558;126.950;2023-06-24T12:23:08;20.13;;;18.20;;
10863;SDS011;5485;37.558;126.950;2023-06-24T12:25:35;19.23;;;17.48;;
10863;SDS011;5485;37.558;126.950;2023-06-24T12:28:08;20.52;;;18.60;;
10863;SDS011;5485;37.558;126.950;2023-06-24T12:30:38;19.17;;;17.48;;
10863;SDS011;5485;37.558;126.950;2023-06-24T12:33:05;20.42;;;18.35;;
10863;SDS011;5485;37.558;126.950;2023-06-24T12:35:34;21.38;;;19.17;;
10863;SDS011;5485;37.558;126.950;2023-06-24T12:38:01;19.23;;;17.45;;
10863;SDS011;5485;37.558;126.950;2023-06-24T12:40:27;18.80;;;17.27;;
10863;SDS011;5485;37.558;126.950;2023-06-24T12:42:54;18.25;;;16.73;;
10863;SDS011;5485;37.558;126.950;2023-06-24T12:45:23;19.80;;;17.75;;
10863;SDS011;5485;37.558;126.950;2023-06-24T12:47:52;19.38;;;17.65;;
10863;SDS011;5485;37.558;126.950;2023-06-24T12:50:19;18.80;;;17.00;;
10863;SDS011;5485;37.558;126.950;2023-06-24T12:52:46;18.88;;;17.15;;
10863;SDS011;5485;37.558;126.950;2023-06-24T12:55:13;19.30;;;17.60;;
10863;SDS011;5485;37.558;126.950;2023-06-24T12:57:40;19.52;;;17.65;;
10863;SDS011;5485;37.558;126.950;2023-06-24T13:00:07;18.98;;;17.27;;
10863;SDS011;5485;37.558;126.950;2023-06-24T13:02:34;18.80;;;17.00;;
10863;SDS011;5485;37.558;126.950;2023-06-24T13:05:02;20.10;;;17.92;;
10863;SDS011;5485;37.558;126.950;2023-06-24T13:07:32;19.40;;;17.70;;
10863;SDS011;5485;37.558;126.950;2023-06-24T13:09:59;18.90;;;17.20;;
10863;SDS011;5485;37.558;126.950;2023-06-24T13:12:27;18.92;;;17.13;;
10863;SDS011;5485;37.558;126.950;2023-06-24T13:14:54;19.83;;;17.92;;
10863;SDS011;5485;37.558;126.950;2023-06-24T13:17:21;19.95;;;18.13;;
10863;SDS011;5485;37.558;126.950;2023-06-24T13:19:47;19.23;;;17.50;;
10863;SDS011;5485;37.558;126.950;2023-06-24T13:22:14;19.92;;;17.92;;
10863;SDS011;5485;37.558;126.950;2023-06-24T13:24:41;19.50;;;17.80;;
10863;SDS011;5485;37.558;126.950;2023-06-24T13:27:08;20.45;;;18.40;;
10863;SDS011;5485;37.558;126.950;2023-06-24T13:29:35;19.60;;;17.90;;
10863;SDS011;5485;37.558;126.950;2023-06-24T13:32:02;20.60;;;18.58;;
10863;SDS011;5485;37.558;126.950;2023-06-24T13:34:29;19.58;;;17.92;;
10863;SDS011;5485;37.558;126.950;2023-06-24T13:36:56;20.95;;;18.92;;
10863;SDS011;5485;37.558;126.950;2023-06-24T13:39:27;20.98;;;19.00;;
10863;SDS011;5485;37.558;126.950;2023-06-24T13:41:54;20.63;;;18.75;;
10863;SDS011;5485;37.558;126.950;2023-06-24T13:44:22;19.85;;;18.05;;
10863;SDS011;5485;37.558;126.950;2023-06-24T13:46:49;20.20;;;18.30;;
10863;SDS011;5485;37.558;126.950;2023-06-24T13:49:18;21.02;;;19.05;;
10863;SDS011;5485;37.558;126.950;2023-06-24T13:51:45;20.13;;;18.15;;
10863;SDS011;5485;37.558;126.950;2023-06-24T13:54:12;20.02;;;18.27;;
10863;SDS011;5485;37.558;126.950;2023-06-24T13:56:40;20.65;;;18.60;;
10863;SDS011;5485;37.558;126.950;2023-06-24T13:59:10;21.63;;;18.60;;
10863;SDS011;5485;37.558;126.950;2023-06-24T14:01:37;19.80;;;18.00;;
10863;SDS011;5485;37.558;126.950;2023-06-24T14:04:04;18.92;;;17.23;;
10863;SDS011;5485;37.558;126.950;2023-06-24T14:06:31;19.65;;;17.75;;
10863;SDS011;5485;37.558;126.950;2023-06-24T14:08:58;19.02;;;17.27;;
10863;SDS011;5485;37.558;126.950;2023-06-24T14:11:25;19.08;;;17.35;;
10863;SDS011;5485;37.558;126.950;2023-06-24T14:13:52;19.95;;;18.17;;
10863;SDS011;5485;37.558;126.950;2023-06-24T14:16:19;20.33;;;18.52;;
10863;SDS011;5485;37.558;126.950;2023-06-24T14:18:46;19.40;;;17.60;;
10863;SDS011;5485;37.558;126.950;2023-06-24T14:21:12;19.23;;;17.42;;
10863;SDS011;5485;37.558;126.950;2023-06-24T14:23:39;19.55;;;17.65;;
10863;SDS011;5485;37.558;126.950;2023-06-24T14:26:07;18.50;;;16.75;;
10863;SDS011;5485;37.558;126.950;2023-06-24T14:28:34;19.58;;;17.77;;
10863;SDS011;5485;37.558;126.950;2023-06-24T14:31:01;21.02;;;18.83;;
10863;SDS011;5485;37.558;126.950;2023-06-24T14:33:28;18.75;;;17.08;;
10863;SDS011;5485;37.558;126.950;2023-06-24T14:35:58;18.52;;;17.02;;
10863;SDS011;5485;37.558;126.950;2023-06-24T14:38:25;17.48;;;15.85;;
10863;SDS011;5485;37.558;126.950;2023-06-24T14:40:52;19.73;;;17.83;;
10863;SDS011;5485;37.558;126.950;2023-06-24T14:43:22;20.17;;;17.67;;